Twigg, Illinois
Current Conditions -  °F | °C
As of 3:35 AM on Sunday 23 Nov 2014 (Local Time) from KHSB Reporting Station
Scattered Clouds Scattered Clouds  
Wind Chill:   Ceiling: Unl
Heat Index: 10°   Visibility: 10mi
Dew Point:   Wind: 7mph
Humidity: 78%   Direction: 120°ESE
Pressure: 29.87"   Gusts: NA
Location:  37.9948°N, 88.5401°W
Report Text: KHSB 230935Z AUTO 12006KT 10SM SCT048 10/06 A2987 RMK AO2 T00970061
Loading
Personal Weather Stations






























Interactive Weather Map New forecast layout! Learn more

10-Day Weather Forecast

Advertisements
Track Severe Weather on mobile